sensor_id;sensor_type;location;lat;lon;timestamp;P1;durP1;ratioP1;P2;durP2;ratioP2
66802;SDS011;53705;49.860;8.744;2024-01-30T00:00:48;8.32;;;3.80;;
66802;SDS011;53705;49.860;8.744;2024-01-30T00:03:16;8.55;;;3.85;;
66802;SDS011;53705;49.860;8.744;2024-01-30T00:05:43;7.30;;;2.75;;
66802;SDS011;53705;49.860;8.744;2024-01-30T00:08:11;7.95;;;3.13;;
66802;SDS011;53705;49.860;8.744;2024-01-30T00:10:40;7.20;;;3.05;;
66802;SDS011;53705;49.860;8.744;2024-01-30T00:13:08;9.40;;;3.53;;
66802;SDS011;53705;49.860;8.744;2024-01-30T00:15:36;4.93;;;2.38;;
66802;SDS011;53705;49.860;8.744;2024-01-30T00:18:04;7.68;;;3.42;;
66802;SDS011;53705;49.860;8.744;2024-01-30T00:20:31;7.03;;;3.15;;
66802;SDS011;53705;49.860;8.744;2024-01-30T00:22:59;7.35;;;3.85;;
66802;SDS011;53705;49.860;8.744;2024-01-30T00:25:28;9.98;;;2.78;;
66802;SDS011;53705;49.860;8.744;2024-01-30T00:27:57;5.10;;;2.70;;
66802;SDS011;53705;49.860;8.744;2024-01-30T00:30:25;7.43;;;3.30;;
66802;SDS011;53705;49.860;8.744;2024-01-30T00:32:53;13.20;;;3.50;;
66802;SDS011;53705;49.860;8.744;2024-01-30T00:35:21;5.18;;;2.03;;
66802;SDS011;53705;49.860;8.744;2024-01-30T00:38:02;6.85;;;3.55;;
66802;SDS011;53705;49.860;8.744;2024-01-30T00:40:30;5.60;;;2.42;;
66802;SDS011;53705;49.860;8.744;2024-01-30T00:42:59;5.97;;;2.72;;
66802;SDS011;53705;49.860;8.744;2024-01-30T00:45:27;8.63;;;2.55;;
66802;SDS011;53705;49.860;8.744;2024-01-30T00:47:55;7.95;;;3.10;;
66802;SDS011;53705;49.860;8.744;2024-01-30T00:50:23;4.80;;;2.08;;
66802;SDS011;53705;49.860;8.744;2024-01-30T00:52:50;5.55;;;3.60;;
66802;SDS011;53705;49.860;8.744;2024-01-30T00:55:18;7.50;;;3.33;;
66802;SDS011;53705;49.860;8.744;2024-01-30T00:57:46;4.30;;;2.08;;
66802;SDS011;53705;49.860;8.744;2024-01-30T01:00:16;7.68;;;2.35;;
66802;SDS011;53705;49.860;8.744;2024-01-30T01:02:44;5.70;;;2.67;;
66802;SDS011;53705;49.860;8.744;2024-01-30T01:05:12;9.32;;;3.42;;
66802;SDS011;53705;49.860;8.744;2024-01-30T01:07:42;9.70;;;4.57;;
66802;SDS011;53705;49.860;8.744;2024-01-30T01:10:10;7.05;;;2.47;;
66802;SDS011;53705;49.860;8.744;2024-01-30T01:12:40;7.32;;;3.50;;
66802;SDS011;53705;49.860;8.744;2024-01-30T01:15:08;8.85;;;2.95;;
66802;SDS011;53705;49.860;8.744;2024-01-30T01:17:38;7.57;;;2.95;;
66802;SDS011;53705;49.860;8.744;2024-01-30T01:20:06;10.00;;;2.95;;
66802;SDS011;53705;49.860;8.744;2024-01-30T01:22:35;7.78;;;3.03;;
66802;SDS011;53705;49.860;8.744;2024-01-30T01:25:05;8.32;;;3.05;;
66802;SDS011;53705;49.860;8.744;2024-01-30T01:27:34;6.03;;;3.08;;
66802;SDS011;53705;49.860;8.744;2024-01-30T01:30:08;7.47;;;3.90;;
66802;SDS011;53705;49.860;8.744;2024-01-30T01:32:38;12.95;;;3.33;;
66802;SDS011;53705;49.860;8.744;2024-01-30T01:35:11;11.23;;;3.42;;
66802;SDS011;53705;49.860;8.744;2024-01-30T01:37:39;6.63;;;3.00;;
66802;SDS011;53705;49.860;8.744;2024-01-30T01:40:07;9.95;;;3.60;;
66802;SDS011;53705;49.860;8.744;2024-01-30T01:42:35;7.70;;;2.90;;
66802;SDS011;53705;49.860;8.744;2024-01-30T01:45:04;6.53;;;3.05;;
66802;SDS011;53705;49.860;8.744;2024-01-30T01:47:32;5.03;;;2.30;;
66802;SDS011;53705;49.860;8.744;2024-01-30T01:50:01;6.97;;;3.20;;
66802;SDS011;53705;49.860;8.744;2024-01-30T01:52:30;12.77;;;3.33;;
66802;SDS011;53705;49.860;8.744;2024-01-30T01:54:58;12.32;;;4.05;;
66802;SDS011;53705;49.860;8.744;2024-01-30T01:57:26;8.40;;;3.70;;
66802;SDS011;53705;49.860;8.744;2024-01-30T01:59:53;6.28;;;2.78;;
66802;SDS011;53705;49.860;8.744;2024-01-30T02:02:21;9.52;;;3.97;;
66802;SDS011;53705;49.860;8.744;2024-01-30T02:04:50;8.45;;;4.05;;
66802;SDS011;53705;49.860;8.744;2024-01-30T02:07:20;9.15;;;3.45;;
66802;SDS011;53705;49.860;8.744;2024-01-30T02:09:48;7.35;;;3.08;;
66802;SDS011;53705;49.860;8.744;2024-01-30T02:12:15;6.95;;;2.90;;
66802;SDS011;53705;49.860;8.744;2024-01-30T02:14:44;7.70;;;3.75;;
66802;SDS011;53705;49.860;8.744;2024-01-30T02:17:12;6.18;;;3.05;;
66802;SDS011;53705;49.860;8.744;2024-01-30T02:19:39;7.57;;;2.92;;
66802;SDS011;53705;49.860;8.744;2024-01-30T02:22:09;7.28;;;3.38;;
66802;SDS011;53705;49.860;8.744;2024-01-30T02:24:36;11.10;;;2.92;;
66802;SDS011;53705;49.860;8.744;2024-01-30T02:27:04;7.55;;;2.63;;
66802;SDS011;53705;49.860;8.744;2024-01-30T02:29:32;9.60;;;3.45;;
66802;SDS011;53705;49.860;8.744;2024-01-30T02:31:59;11.05;;;3.38;;
66802;SDS011;53705;49.860;8.744;2024-01-30T02:34:27;6.88;;;2.75;;
66802;SDS011;53705;49.860;8.744;2024-01-30T02:36:55;9.23;;;2.97;;
66802;SDS011;53705;49.860;8.744;2024-01-30T02:39:24;5.93;;;2.67;;
66802;SDS011;53705;49.860;8.744;2024-01-30T02:41:52;6.60;;;2.78;;
66802;SDS011;53705;49.860;8.744;2024-01-30T02:44:21;6.82;;;2.50;;
66802;SDS011;53705;49.860;8.744;2024-01-30T02:46:48;5.88;;;2.47;;
66802;SDS011;53705;49.860;8.744;2024-01-30T02:49:16;6.68;;;2.75;;
66802;SDS011;53705;49.860;8.744;2024-01-30T02:51:44;7.25;;;2.83;;
66802;SDS011;53705;49.860;8.744;2024-01-30T02:54:12;7.57;;;3.47;;
66802;SDS011;53705;49.860;8.744;2024-01-30T02:56:41;6.00;;;2.80;;
66802;SDS011;53705;49.860;8.744;2024-01-30T02:59:08;6.40;;;3.35;;
66802;SDS011;53705;49.860;8.744;2024-01-30T03:01:42;7.75;;;2.58;;
66802;SDS011;53705;49.860;8.744;2024-01-30T03:04:10;8.27;;;4.43;;
66802;SDS011;53705;49.860;8.744;2024-01-30T03:06:38;8.10;;;4.10;;
66802;SDS011;53705;49.860;8.744;2024-01-30T03:09:06;8.30;;;3.38;;
66802;SDS011;53705;49.860;8.744;2024-01-30T03:11:35;11.88;;;4.07;;
66802;SDS011;53705;49.860;8.744;2024-01-30T03:14:04;7.80;;;3.78;;
66802;SDS011;53705;49.860;8.744;2024-01-30T03:16:32;11.80;;;3.58;;
66802;SDS011;53705;49.860;8.744;2024-01-30T03:19:00;10.32;;;3.80;;
66802;SDS011;53705;49.860;8.744;2024-01-30T03:21:30;10.18;;;3.65;;
66802;SDS011;53705;49.860;8.744;2024-01-30T03:23:57;5.88;;;3.22;;
66802;SDS011;53705;49.860;8.744;2024-01-30T03:26:26;6.90;;;2.65;;
66802;SDS011;53705;49.860;8.744;2024-01-30T03:28:54;9.63;;;3.88;;
66802;SDS011;53705;49.860;8.744;2024-01-30T03:31:23;9.25;;;3.92;;
66802;SDS011;53705;49.860;8.744;2024-01-30T03:33:51;6.80;;;3.17;;
66802;SDS011;53705;49.860;8.744;2024-01-30T03:36:19;8.70;;;5.47;;
66802;SDS011;53705;49.860;8.744;2024-01-30T03:38:47;6.88;;;3.05;;
66802;SDS011;53705;49.860;8.744;2024-01-30T03:41:15;9.38;;;3.35;;
66802;SDS011;53705;49.860;8.744;2024-01-30T03:43:43;11.55;;;5.22;;
66802;SDS011;53705;49.860;8.744;2024-01-30T03:46:11;9.70;;;3.22;;
66802;SDS011;53705;49.860;8.744;2024-01-30T03:48:40;5.45;;;2.72;;
66802;SDS011;53705;49.860;8.744;2024-01-30T03:51:08;6.55;;;3.53;;
66802;SDS011;53705;49.860;8.744;2024-01-30T03:53:40;8.27;;;3.33;;
66802;SDS011;53705;49.860;8.744;2024-01-30T03:56:08;7.18;;;3.55;;
66802;SDS011;53705;49.860;8.744;2024-01-30T03:58:36;8.98;;;3.67;;
66802;SDS011;53705;49.860;8.744;2024-01-30T04:01:04;7.65;;;3.75;;
66802;SDS011;53705;49.860;8.744;2024-01-30T04:03:32;8.27;;;3.28;;
66802;SDS011;53705;49.860;8.744;2024-01-30T04:06:01;7.97;;;3.97;;
66802;SDS011;53705;49.860;8.744;2024-01-30T04:08:29;6.93;;;3.50;;
66802;SDS011;53705;49.860;8.744;2024-01-30T04:10:56;8.75;;;2.72;;
66802;SDS011;53705;49.860;8.744;2024-01-30T04:13:24;5.28;;;2.70;;
66802;SDS011;53705;49.860;8.744;2024-01-30T04:15:52;8.45;;;3.25;;
66802;SDS011;53705;49.860;8.744;2024-01-30T04:18:21;6.68;;;2.88;;
66802;SDS011;53705;49.860;8.744;2024-01-30T04:20:49;8.10;;;2.80;;
66802;SDS011;53705;49.860;8.744;2024-01-30T04:23:18;7.68;;;3.63;;
66802;SDS011;53705;49.860;8.744;2024-01-30T04:25:46;7.55;;;2.95;;
66802;SDS011;53705;49.860;8.744;2024-01-30T04:28:14;7.32;;;2.65;;
66802;SDS011;53705;49.860;8.744;2024-01-30T04:30:41;7.50;;;3.53;;
66802;SDS011;53705;49.860;8.744;2024-01-30T04:33:10;7.10;;;3.70;;
66802;SDS011;53705;49.860;8.744;2024-01-30T04:35:37;8.05;;;3.83;;
66802;SDS011;53705;49.860;8.744;2024-01-30T04:38:05;5.93;;;3.00;;
66802;SDS011;53705;49.860;8.744;2024-01-30T04:40:34;7.72;;;3.70;;
66802;SDS011;53705;49.860;8.744;2024-01-30T04:43:02;4.57;;;2.58;;
66802;SDS011;53705;49.860;8.744;2024-01-30T04:45:30;8.35;;;3.05;;
66802;SDS011;53705;49.860;8.744;2024-01-30T04:47:57;6.47;;;3.00;;
66802;SDS011;53705;49.860;8.744;2024-01-30T04:50:25;6.88;;;3.67;;
66802;SDS011;53705;49.860;8.744;2024-01-30T04:52:53;8.55;;;1.83;;
66802;SDS011;53705;49.860;8.744;2024-01-30T04:55:21;6.13;;;2.55;;
66802;SDS011;53705;49.860;8.744;2024-01-30T04:57:50;8.02;;;3.22;;
66802;SDS011;53705;49.860;8.744;2024-01-30T05:00:18;9.27;;;3.22;;
66802;SDS011;53705;49.860;8.744;2024-01-30T05:02:46;6.90;;;3.53;;
66802;SDS011;53705;49.860;8.744;2024-01-30T05:05:14;8.05;;;3.38;;
66802;SDS011;53705;49.860;8.744;2024-01-30T05:07:43;8.82;;;3.80;;
66802;SDS011;53705;49.860;8.744;2024-01-30T05:10:10;7.82;;;4.10;;
66802;SDS011;53705;49.860;8.744;2024-01-30T05:12:38;6.93;;;2.47;;
66802;SDS011;53705;49.860;8.744;2024-01-30T05:15:08;6.78;;;3.17;;
66802;SDS011;53705;49.860;8.744;2024-01-30T05:17:36;7.28;;;2.53;;
66802;SDS011;53705;49.860;8.744;2024-01-30T05:20:04;5.60;;;3.10;;
66802;SDS011;53705;49.860;8.744;2024-01-30T05:22:32;10.70;;;3.47;;
66802;SDS011;53705;49.860;8.744;2024-01-30T05:25:00;5.15;;;2.45;;
66802;SDS011;53705;49.860;8.744;2024-01-30T05:27:28;10.52;;;3.97;;
66802;SDS011;53705;49.860;8.744;2024-01-30T05:29:56;7.20;;;3.58;;
66802;SDS011;53705;49.860;8.744;2024-01-30T05:32:25;7.40;;;3.60;;
66802;SDS011;53705;49.860;8.744;2024-01-30T05:34:53;6.90;;;3.08;;
66802;SDS011;53705;49.860;8.744;2024-01-30T05:37:20;7.05;;;3.38;;
66802;SDS011;53705;49.860;8.744;2024-01-30T05:39:49;12.25;;;3.80;;
66802;SDS011;53705;49.860;8.744;2024-01-30T05:42:16;7.82;;;3.40;;
66802;SDS011;53705;49.860;8.744;2024-01-30T05:44:44;9.10;;;4.07;;
66802;SDS011;53705;49.860;8.744;2024-01-30T05:47:12;8.40;;;4.32;;
66802;SDS011;53705;49.860;8.744;2024-01-30T05:49:41;9.85;;;5.60;;
66802;SDS011;53705;49.860;8.744;2024-01-30T05:52:09;12.63;;;5.38;;
66802;SDS011;53705;49.860;8.744;2024-01-30T05:54:37;11.90;;;4.28;;
66802;SDS011;53705;49.860;8.744;2024-01-30T05:57:05;9.15;;;4.55;;
66802;SDS011;53705;49.860;8.744;2024-01-30T05:59:33;7.57;;;5.05;;
66802;SDS011;53705;49.860;8.744;2024-01-30T06:02:10;9.55;;;3.88;;
66802;SDS011;53705;49.860;8.744;2024-01-30T06:04:38;14.77;;;6.38;;
66802;SDS011;53705;49.860;8.744;2024-01-30T06:07:07;9.77;;;4.05;;
66802;SDS011;53705;49.860;8.744;2024-01-30T06:09:35;11.95;;;5.50;;
66802;SDS011;53705;49.860;8.744;2024-01-30T06:12:03;9.60;;;4.28;;
66802;SDS011;53705;49.860;8.744;2024-01-30T06:14:31;13.13;;;4.53;;
66802;SDS011;53705;49.860;8.744;2024-01-30T06:17:00;9.02;;;4.15;;
66802;SDS011;53705;49.860;8.744;2024-01-30T06:19:27;8.00;;;3.17;;
66802;SDS011;53705;49.860;8.744;2024-01-30T06:21:58;8.18;;;4.05;;
66802;SDS011;53705;49.860;8.744;2024-01-30T06:24:34;8.73;;;3.85;;
66802;SDS011;53705;49.860;8.744;2024-01-30T06:27:02;7.72;;;4.05;;
66802;SDS011;53705;49.860;8.744;2024-01-30T06:29:30;11.15;;;4.93;;
66802;SDS011;53705;49.860;8.744;2024-01-30T06:31:59;9.52;;;3.92;;
66802;SDS011;53705;49.860;8.744;2024-01-30T06:34:26;8.63;;;3.95;;
66802;SDS011;53705;49.860;8.744;2024-01-30T06:36:54;10.40;;;4.95;;
66802;SDS011;53705;49.860;8.744;2024-01-30T06:39:22;10.98;;;4.18;;
66802;SDS011;53705;49.860;8.744;2024-01-30T06:41:52;16.77;;;6.55;;
66802;SDS011;53705;49.860;8.744;2024-01-30T06:44:20;10.13;;;6.15;;
66802;SDS011;53705;49.860;8.744;2024-01-30T06:46:48;9.85;;;5.53;;
66802;SDS011;53705;49.860;8.744;2024-01-30T06:49:16;9.15;;;4.80;;
66802;SDS011;53705;49.860;8.744;2024-01-30T06:51:43;10.93;;;4.68;;
66802;SDS011;53705;49.860;8.744;2024-01-30T06:54:11;16.20;;;5.35;;
66802;SDS011;53705;49.860;8.744;2024-01-30T06:56:39;10.35;;;4.85;;
66802;SDS011;53705;49.860;8.744;2024-01-30T06:59:08;9.05;;;4.82;;
66802;SDS011;53705;49.860;8.744;2024-01-30T07:01:36;9.65;;;4.68;;
66802;SDS011;53705;49.860;8.744;2024-01-30T07:04:04;10.75;;;4.13;;
66802;SDS011;53705;49.860;8.744;2024-01-30T07:06:31;10.23;;;4.85;;
66802;SDS011;53705;49.860;8.744;2024-01-30T07:08:59;9.20;;;4.75;;
66802;SDS011;53705;49.860;8.744;2024-01-30T07:11:27;11.38;;;6.00;;
66802;SDS011;53705;49.860;8.744;2024-01-30T07:13:55;13.07;;;5.70;;
66802;SDS011;53705;49.860;8.744;2024-01-30T07:16:24;12.65;;;5.70;;
66802;SDS011;53705;49.860;8.744;2024-01-30T07:18:52;9.50;;;5.20;;
66802;SDS011;53705;49.860;8.744;2024-01-30T07:21:20;10.55;;;4.50;;
66802;SDS011;53705;49.860;8.744;2024-01-30T07:23:51;8.05;;;3.42;;
66802;SDS011;53705;49.860;8.744;2024-01-30T07:26:19;8.48;;;3.97;;
66802;SDS011;53705;49.860;8.744;2024-01-30T07:28:47;8.18;;;3.35;;
66802;SDS011;53705;49.860;8.744;2024-01-30T07:31:14;8.63;;;5.07;;
66802;SDS011;53705;49.860;8.744;2024-01-30T07:33:44;8.60;;;4.22;;
66802;SDS011;53705;49.860;8.744;2024-01-30T07:36:12;8.75;;;4.68;;
66802;SDS011;53705;49.860;8.744;2024-01-30T07:38:39;12.00;;;5.32;;
66802;SDS011;53705;49.860;8.744;2024-01-30T07:41:07;10.10;;;4.85;;
66802;SDS011;53705;49.860;8.744;2024-01-30T07:43:35;18.80;;;7.47;;
66802;SDS011;53705;49.860;8.744;2024-01-30T07:46:03;22.05;;;7.07;;
66802;SDS011;53705;49.860;8.744;2024-01-30T07:48:32;18.05;;;7.95;;
66802;SDS011;53705;49.860;8.744;2024-01-30T07:51:02;15.73;;;7.07;;
66802;SDS011;53705;49.860;8.744;2024-01-30T07:53:30;13.88;;;6.65;;
66802;SDS011;53705;49.860;8.744;2024-01-30T08:02:44;10.98;;;5.47;;
66802;SDS011;53705;49.860;8.744;2024-01-30T08:05:12;7.32;;;3.72;;
66802;SDS011;53705;49.860;8.744;2024-01-30T08:07:43;10.65;;;4.93;;
66802;SDS011;53705;49.860;8.744;2024-01-30T08:10:11;10.50;;;4.88;;
66802;SDS011;53705;49.860;8.744;2024-01-30T08:12:39;9.57;;;5.03;;
66802;SDS011;53705;49.860;8.744;2024-01-30T08:15:07;13.45;;;4.70;;
66802;SDS011;53705;49.860;8.744;2024-01-30T08:17:35;12.48;;;5.10;;
66802;SDS011;53705;49.860;8.744;2024-01-30T08:20:03;8.55;;;4.55;;
66802;SDS011;53705;49.860;8.744;2024-01-30T08:22:31;11.35;;;6.28;;
66802;SDS011;53705;49.860;8.744;2024-01-30T08:25:00;9.35;;;5.25;;
66802;SDS011;53705;49.860;8.744;2024-01-30T08:27:28;9.23;;;4.47;;
66802;SDS011;53705;49.860;8.744;2024-01-30T08:29:56;10.25;;;4.30;;
66802;SDS011;53705;49.860;8.744;2024-01-30T08:32:24;13.07;;;5.55;;
66802;SDS011;53705;49.860;8.744;2024-01-30T08:34:51;8.00;;;4.45;;
66802;SDS011;53705;49.860;8.744;2024-01-30T08:37:19;10.63;;;5.65;;
66802;SDS011;53705;49.860;8.744;2024-01-30T08:39:47;9.63;;;4.72;;
66802;SDS011;53705;49.860;8.744;2024-01-30T08:42:16;10.80;;;4.45;;
66802;SDS011;53705;49.860;8.744;2024-01-30T08:44:49;10.82;;;5.07;;
66802;SDS011;53705;49.860;8.744;2024-01-30T08:47:18;9.75;;;4.25;;
66802;SDS011;53705;49.860;8.744;2024-01-30T08:49:46;11.55;;;4.93;;
66802;SDS011;53705;49.860;8.744;2024-01-30T08:52:13;10.93;;;5.28;;
66802;SDS011;53705;49.860;8.744;2024-01-30T08:54:41;14.00;;;5.95;;
66802;SDS011;53705;49.860;8.744;2024-01-30T08:57:09;11.45;;;6.75;;
66802;SDS011;53705;49.860;8.744;2024-01-30T08:59:38;13.48;;;6.03;;
66802;SDS011;53705;49.860;8.744;2024-01-30T09:02:06;13.75;;;6.68;;
66802;SDS011;53705;49.860;8.744;2024-01-30T09:04:38;14.80;;;5.97;;
66802;SDS011;53705;49.860;8.744;2024-01-30T09:07:07;14.02;;;5.47;;
66802;SDS011;53705;49.860;8.744;2024-01-30T09:09:37;12.32;;;5.43;;
66802;SDS011;53705;49.860;8.744;2024-01-30T09:12:06;11.18;;;6.20;;
66802;SDS011;53705;49.860;8.744;2024-01-30T09:14:37;15.40;;;7.47;;
66802;SDS011;53705;49.860;8.744;2024-01-30T09:17:05;9.35;;;4.85;;
66802;SDS011;53705;49.860;8.744;2024-01-30T09:19:33;14.73;;;5.85;;
66802;SDS011;53705;49.860;8.744;2024-01-30T09:22:01;12.73;;;4.78;;
66802;SDS011;53705;49.860;8.744;2024-01-30T09:24:29;10.82;;;4.75;;
66802;SDS011;53705;49.860;8.744;2024-01-30T09:26:57;11.82;;;6.05;;
66802;SDS011;53705;49.860;8.744;2024-01-30T09:29:25;14.48;;;7.60;;
66802;SDS011;53705;49.860;8.744;2024-01-30T09:31:54;10.45;;;5.57;;
66802;SDS011;53705;49.860;8.744;2024-01-30T09:34:22;13.43;;;5.88;;
66802;SDS011;53705;49.860;8.744;2024-01-30T09:36:50;9.40;;;5.72;;
66802;SDS011;53705;49.860;8.744;2024-01-30T09:39:18;12.75;;;6.68;;
66802;SDS011;53705;49.860;8.744;2024-01-30T09:41:48;12.77;;;6.35;;
66802;SDS011;53705;49.860;8.744;2024-01-30T09:44:16;15.75;;;6.95;;
66802;SDS011;53705;49.860;8.744;2024-01-30T09:46:44;17.42;;;8.40;;
66802;SDS011;53705;49.860;8.744;2024-01-30T09:49:15;15.70;;;8.65;;
66802;SDS011;53705;49.860;8.744;2024-01-30T09:51:47;15.00;;;8.60;;
66802;SDS011;53705;49.860;8.744;2024-01-30T09:54:15;16.92;;;8.18;;
66802;SDS011;53705;49.860;8.744;2024-01-30T09:56:43;19.92;;;9.43;;
66802;SDS011;53705;49.860;8.744;2024-01-30T09:59:11;13.27;;;7.78;;
66802;SDS011;53705;49.860;8.744;2024-01-30T10:01:38;15.35;;;7.80;;
66802;SDS011;53705;49.860;8.744;2024-01-30T10:04:07;13.77;;;7.47;;
66802;SDS011;53705;49.860;8.744;2024-01-30T10:06:36;15.82;;;7.25;;
66802;SDS011;53705;49.860;8.744;2024-01-30T10:09:04;15.55;;;6.80;;
66802;SDS011;53705;49.860;8.744;2024-01-30T10:11:32;12.55;;;5.75;;
66802;SDS011;53705;49.860;8.744;2024-01-30T10:14:00;12.75;;;5.88;;
66802;SDS011;53705;49.860;8.744;2024-01-30T10:16:28;12.32;;;5.50;;
66802;SDS011;53705;49.860;8.744;2024-01-30T10:18:56;14.02;;;5.15;;
66802;SDS011;53705;49.860;8.744;2024-01-30T10:21:24;16.90;;;5.88;;
66802;SDS011;53705;49.860;8.744;2024-01-30T10:23:53;16.85;;;6.47;;
66802;SDS011;53705;49.860;8.744;2024-01-30T10:26:21;12.30;;;5.38;;
66802;SDS011;53705;49.860;8.744;2024-01-30T10:28:49;12.55;;;5.78;;
66802;SDS011;53705;49.860;8.744;2024-01-30T10:31:17;11.93;;;5.00;;
66802;SDS011;53705;49.860;8.744;2024-01-30T10:33:45;11.40;;;6.03;;
66802;SDS011;53705;49.860;8.744;2024-01-30T10:36:14;10.85;;;6.22;;
66802;SDS011;53705;49.860;8.744;2024-01-30T10:38:46;10.38;;;5.18;;
66802;SDS011;53705;49.860;8.744;2024-01-30T10:41:19;9.98;;;5.45;;
66802;SDS011;53705;49.860;8.744;2024-01-30T10:43:53;12.25;;;4.68;;
66802;SDS011;53705;49.860;8.744;2024-01-30T10:46:26;7.82;;;3.97;;
66802;SDS011;53705;49.860;8.744;2024-01-30T10:48:57;7.57;;;3.17;;
66802;SDS011;53705;49.860;8.744;2024-01-30T10:51:25;7.00;;;3.17;;
66802;SDS011;53705;49.860;8.744;2024-01-30T10:53:54;7.70;;;3.08;;
66802;SDS011;53705;49.860;8.744;2024-01-30T10:56:25;8.57;;;3.60;;
66802;SDS011;53705;49.860;8.744;2024-01-30T10:58:53;6.90;;;2.83;;
66802;SDS011;53705;49.860;8.744;2024-01-30T11:01:22;7.22;;;3.28;;
66802;SDS011;53705;49.860;8.744;2024-01-30T11:03:50;9.15;;;3.22;;
66802;SDS011;53705;49.860;8.744;2024-01-30T11:06:18;9.10;;;2.75;;
66802;SDS011;53705;49.860;8.744;2024-01-30T11:08:46;7.53;;;3.13;;
66802;SDS011;53705;49.860;8.744;2024-01-30T11:11:13;8.55;;;3.67;;
66802;SDS011;53705;49.860;8.744;2024-01-30T11:13:46;12.93;;;4.55;;
66802;SDS011;53705;49.860;8.744;2024-01-30T11:16:17;8.68;;;4.60;;
66802;SDS011;53705;49.860;8.744;2024-01-30T11:18:49;12.07;;;4.95;;
66802;SDS011;53705;49.860;8.744;2024-01-30T11:21:17;10.77;;;5.53;;
66802;SDS011;53705;49.860;8.744;2024-01-30T11:23:45;6.93;;;3.70;;
66802;SDS011;53705;49.860;8.744;2024-01-30T11:26:13;8.30;;;4.00;;
66802;SDS011;53705;49.860;8.744;2024-01-30T11:28:40;9.63;;;3.40;;
66802;SDS011;53705;49.860;8.744;2024-01-30T11:31:09;9.30;;;3.65;;
66802;SDS011;53705;49.860;8.744;2024-01-30T11:33:46;5.93;;;3.10;;
66802;SDS011;53705;49.860;8.744;2024-01-30T11:36:14;5.68;;;2.28;;
66802;SDS011;53705;49.860;8.744;2024-01-30T11:38:44;4.85;;;2.15;;
66802;SDS011;53705;49.860;8.744;2024-01-30T11:41:13;7.45;;;2.95;;
66802;SDS011;53705;49.860;8.744;2024-01-30T11:43:41;6.13;;;2.42;;
66802;SDS011;53705;49.860;8.744;2024-01-30T11:46:10;6.53;;;4.22;;
66802;SDS011;53705;49.860;8.744;2024-01-30T11:48:39;9.48;;;2.85;;
66802;SDS011;53705;49.860;8.744;2024-01-30T11:51:06;6.63;;;2.60;;
66802;SDS011;53705;49.860;8.744;2024-01-30T11:53:34;7.80;;;2.67;;
66802;SDS011;53705;49.860;8.744;2024-01-30T11:56:02;7.22;;;2.05;;
66802;SDS011;53705;49.860;8.744;2024-01-30T11:58:30;5.97;;;2.33;;
66802;SDS011;53705;49.860;8.744;2024-01-30T12:00:58;6.15;;;2.30;;
66802;SDS011;53705;49.860;8.744;2024-01-30T12:03:28;5.70;;;2.13;;
66802;SDS011;53705;49.860;8.744;2024-01-30T12:05:56;6.55;;;2.20;;
66802;SDS011;53705;49.860;8.744;2024-01-30T12:08:25;6.30;;;1.92;;
66802;SDS011;53705;49.860;8.744;2024-01-30T12:10:57;5.00;;;2.45;;
66802;SDS011;53705;49.860;8.744;2024-01-30T12:13:25;7.53;;;2.90;;
66802;SDS011;53705;49.860;8.744;2024-01-30T12:15:58;3.80;;;1.75;;
66802;SDS011;53705;49.860;8.744;2024-01-30T12:18:27;5.88;;;2.35;;
66802;SDS011;53705;49.860;8.744;2024-01-30T12:20:58;5.10;;;2.25;;
66802;SDS011;53705;49.860;8.744;2024-01-30T12:23:27;5.00;;;1.92;;
66802;SDS011;53705;49.860;8.744;2024-01-30T12:25:55;7.38;;;2.83;;
66802;SDS011;53705;49.860;8.744;2024-01-30T12:28:23;6.28;;;2.33;;
66802;SDS011;53705;49.860;8.744;2024-01-30T12:30:54;5.45;;;2.15;;
66802;SDS011;53705;49.860;8.744;2024-01-30T12:33:22;5.47;;;2.80;;
66802;SDS011;53705;49.860;8.744;2024-01-30T12:35:51;7.20;;;1.88;;
66802;SDS011;53705;49.860;8.744;2024-01-30T12:38:28;4.07;;;1.52;;
66802;SDS011;53705;49.860;8.744;2024-01-30T12:40:56;5.25;;;1.70;;
66802;SDS011;53705;49.860;8.744;2024-01-30T12:43:25;4.93;;;1.95;;
66802;SDS011;53705;49.860;8.744;2024-01-30T12:46:04;5.80;;;1.98;;
66802;SDS011;53705;49.860;8.744;2024-01-30T12:48:33;6.15;;;1.65;;
66802;SDS011;53705;49.860;8.744;2024-01-30T12:51:02;5.45;;;2.47;;
66802;SDS011;53705;49.860;8.744;2024-01-30T12:53:30;7.53;;;3.00;;
66802;SDS011;53705;49.860;8.744;2024-01-30T12:55:58;5.72;;;1.90;;
66802;SDS011;53705;49.860;8.744;2024-01-30T12:58:26;11.40;;;4.72;;
66802;SDS011;53705;49.860;8.744;2024-01-30T13:00:54;8.05;;;2.90;;
66802;SDS011;53705;49.860;8.744;2024-01-30T13:03:27;7.30;;;2.03;;
66802;SDS011;53705;49.860;8.744;2024-01-30T13:05:57;4.20;;;1.70;;
66802;SDS011;53705;49.860;8.744;2024-01-30T13:08:26;4.28;;;2.20;;
66802;SDS011;53705;49.860;8.744;2024-01-30T13:10:54;5.65;;;1.75;;
66802;SDS011;53705;49.860;8.744;2024-01-30T13:13:22;6.95;;;2.13;;
66802;SDS011;53705;49.860;8.744;2024-01-30T13:15:50;5.10;;;1.77;;
66802;SDS011;53705;49.860;8.744;2024-01-30T13:18:18;4.22;;;1.48;;
66802;SDS011;53705;49.860;8.744;2024-01-30T13:20:46;4.40;;;1.92;;
66802;SDS011;53705;49.860;8.744;2024-01-30T13:23:14;4.95;;;1.85;;
66802;SDS011;53705;49.860;8.744;2024-01-30T13:25:43;4.70;;;1.75;;
66802;SDS011;53705;49.860;8.744;2024-01-30T13:28:10;4.18;;;2.30;;
66802;SDS011;53705;49.860;8.744;2024-01-30T13:30:38;6.07;;;1.98;;
66802;SDS011;53705;49.860;8.744;2024-01-30T13:33:06;4.60;;;1.70;;
66802;SDS011;53705;49.860;8.744;2024-01-30T13:35:34;6.50;;;2.35;;
66802;SDS011;53705;49.860;8.744;2024-01-30T13:38:01;6.20;;;2.35;;
66802;SDS011;53705;49.860;8.744;2024-01-30T13:40:29;7.13;;;1.90;;
66802;SDS011;53705;49.860;8.744;2024-01-30T13:42:59;5.90;;;2.55;;
66802;SDS011;53705;49.860;8.744;2024-01-30T13:45:27;5.65;;;1.77;;
66802;SDS011;53705;49.860;8.744;2024-01-30T13:47:55;6.93;;;2.15;;
66802;SDS011;53705;49.860;8.744;2024-01-30T13:50:23;4.57;;;1.83;;
66802;SDS011;53705;49.860;8.744;2024-01-30T13:52:51;5.68;;;2.80;;
66802;SDS011;53705;49.860;8.744;2024-01-30T13:55:19;5.65;;;2.15;;
66802;SDS011;53705;49.860;8.744;2024-01-30T13:57:47;6.80;;;2.17;;
66802;SDS011;53705;49.860;8.744;2024-01-30T14:00:18;4.72;;;1.95;;
66802;SDS011;53705;49.860;8.744;2024-01-30T14:02:48;5.82;;;1.80;;
66802;SDS011;53705;49.860;8.744;2024-01-30T14:05:16;5.13;;;1.90;;
66802;SDS011;53705;49.860;8.744;2024-01-30T14:07:45;4.95;;;2.05;;
66802;SDS011;53705;49.860;8.744;2024-01-30T14:10:13;6.05;;;2.35;;
66802;SDS011;53705;49.860;8.744;2024-01-30T14:12:41;4.85;;;2.13;;
66802;SDS011;53705;49.860;8.744;2024-01-30T14:15:10;6.05;;;1.75;;
66802;SDS011;53705;49.860;8.744;2024-01-30T14:17:54;8.90;;;1.95;;
66802;SDS011;53705;49.860;8.744;2024-01-30T14:20:24;7.65;;;1.73;;
66802;SDS011;53705;49.860;8.744;2024-01-30T14:22:52;4.35;;;1.25;;
66802;SDS011;53705;49.860;8.744;2024-01-30T14:25:22;5.18;;;2.50;;
66802;SDS011;53705;49.860;8.744;2024-01-30T14:27:51;4.15;;;1.75;;
66802;SDS011;53705;49.860;8.744;2024-01-30T14:30:19;5.78;;;2.05;;
66802;SDS011;53705;49.860;8.744;2024-01-30T14:32:46;5.93;;;1.80;;
66802;SDS011;53705;49.860;8.744;2024-01-30T14:35:16;4.63;;;1.73;;
66802;SDS011;53705;49.860;8.744;2024-01-30T14:37:45;4.95;;;2.08;;
66802;SDS011;53705;49.860;8.744;2024-01-30T14:40:13;5.97;;;2.17;;
66802;SDS011;53705;49.860;8.744;2024-01-30T14:42:41;5.22;;;2.90;;
66802;SDS011;53705;49.860;8.744;2024-01-30T14:45:09;5.00;;;1.77;;
66802;SDS011;53705;49.860;8.744;2024-01-30T14:47:38;4.65;;;1.77;;
66802;SDS011;53705;49.860;8.744;2024-01-30T14:50:06;6.15;;;2.28;;
66802;SDS011;53705;49.860;8.744;2024-01-30T14:52:36;4.97;;;2.30;;
66802;SDS011;53705;49.860;8.744;2024-01-30T14:55:07;6.82;;;2.53;;
66802;SDS011;53705;49.860;8.744;2024-01-30T14:57:35;6.55;;;2.38;;